TAF Text Data
IDs:
Format:
Raw Decoded Include METAR

Data at: 0213 UTC 23 Sep 2018

KINK 230153Z AUTO 09006KT 10SM CLR 20/10 A3009 RMK AO2 SLP156 T02000100

KINK 222320Z 2300/2324 06007KT P6SM SKC